Ellsworth, Iowa
Current Conditions -  °F | °C
As of 11:55 AM on Saturday 20 Dec 2014 (Local Time) from KEBS Reporting Station
Haze Haze  
Wind Chill: 24°   Ceiling: 800
Heat Index: 32°   Visibility: 6mi
Dew Point: 30°   Wind: 9mph
Humidity: 93%   Direction: 150°SSE
Pressure: 30.12"   Gusts: NA
Location:  42.31°N, 93.58°W
Report Text: KEBS 201755Z AUTO 15008KT 6SM BR OVC008 M00/M01 A3012 RMK AO2
Loading
Personal Weather Stations






























Interactive Weather Map New forecast layout! Learn more

10-Day Weather Forecast

Advertisements
Track Severe Weather on mobile